| time (UTC) | temp C | wind direction | speed KPH | gust KPH | rain 1hr cm | rain 24hr cm | rain mn cm | humidity % | barometer mb |
| 20260506203535 | 15 | 87 | 1.6 | 4.8 | 0.00 | 1.83 | 1.83 | 82 | 1011.8 |
| 20260506202635 | 15 | 334 | 3.2 | 4.8 | 0.00 | 1.83 | 1.83 | 83 | 1011.7 |
| 20260506201735 | 15 | 336 | 1.6 | 4.8 | 0.00 | 1.83 | 1.83 | 82 | 1011.8 |
| 20260506200835 | 15 | 127 | 0.0 | 1.6 | 0.00 | 1.83 | 1.83 | 82 | 1011.6 |
| 20260506195935 | 15 | 75 | 4.8 | 8.0 | 0.00 | 1.83 | 1.83 | 82 | 1011.5 |
| 20260506195350 | 15 | 131 | 6.4 | 9.7 | 0.00 | 1.83 | 1.83 | 82 | 1011.5 |
| 20260506194435 | 15 | 67 | 0.0 | 3.2 | 0.00 | 1.83 | 1.83 | 82 | 1011.3 |
| 20260506193542 | 15 | 170 | 6.4 | 11.3 | 0.00 | 1.83 | 1.83 | 83 | 1011.3 |
| 20260506192717 | 15 | 144 | 3.2 | 8.0 | 0.00 | 1.83 | 1.83 | 83 | 1011.2 |
| 20260506191757 | 15 | 44 | 1.6 | 4.8 | 0.00 | 1.83 | 1.83 | 83 | 1011.1 |
| 20260506190836 | 15 | 107 | 0.0 | 1.6 | 0.00 | 1.83 | 1.83 | 83 | 1010.9 |
| 20260506185935 | 15 | 61 | 1.6 | 4.8 | 0.00 | 1.83 | 1.83 | 84 | 1010.8 |
| 20260506185335 | 15 | 266 | 3.2 | 6.4 | 0.00 | 1.83 | 1.83 | 84 | 1010.7 |
| 20260506184436 | 15 | 5 | 3.2 | 8.0 | 0.00 | 1.83 | 1.83 | 84 | 1010.7 |
| 20260506183535 | 15 | 16 | 3.2 | 6.4 | 0.00 | 1.83 | 1.83 | 85 | 1010.5 |
| 20260506182637 | 15 | 297 | 1.6 | 3.2 | 0.00 | 1.83 | 1.83 | 86 | 1010.5 |
| 20260506181735 | 15 | 22 | 4.8 | 9.7 | 0.00 | 1.83 | 1.83 | 85 | 1010.3 |
| 20260506180834 | 15 | 160 | 3.2 | 8.0 | 0.00 | 1.83 | 1.83 | 85 | 1010.2 |
| 20260506175935 | 15 | 48 | 8.0 | 14.5 | 0.00 | 1.83 | 1.83 | 85 | 1010.0 |
| 20260506175335 | 15 | 110 | 8.0 | 12.9 | 0.00 | 1.83 | 1.83 | 85 | 1010.0 |
| 20260506174435 | 16 | 348 | 4.8 | 11.3 | 0.00 | 1.83 | 1.83 | 85 | 1010.0 |
| 20260506173534 | 16 | 41 | 4.8 | 8.0 | 0.00 | 1.83 | 1.83 | 84 | 1009.9 |
| 20260506172635 | 16 | 315 | 6.4 | 9.7 | 0.00 | 1.83 | 1.83 | 83 | 1009.8 |
| 20260506171734 | 16 | 16 | 11.3 | 14.5 | 0.00 | 1.83 | 1.83 | 83 | 1009.8 |
| 20260506170834 | 16 | 29 | 6.4 | 12.9 | 0.00 | 1.83 | 1.83 | 82 | 1009.8 |
| 20260506165956 | 16 | 352 | 1.6 | 4.8 | 0.00 | 1.83 | 1.83 | 82 | 1009.7 |
| 20260506165335 | 17 | 87 | 1.6 | 3.2 | 0.00 | 1.83 | 1.83 | 81 | 1009.6 |
| 20260506164435 | 17 | 257 | 1.6 | 4.8 | 0.00 | 1.83 | 1.83 | 82 | 1009.7 |
| 20260506163535 | 16 | 347 | 3.2 | 6.4 | 0.00 | 1.83 | 1.83 | 83 | 1009.8 |
| 20260506162634 | 16 | 24 | 0.0 | 1.6 | 0.00 | 1.83 | 1.83 | 82 | 1009.8 |
| 20260506161735 | 17 | 60 | 6.4 | 11.3 | 0.00 | 1.83 | 1.83 | 82 | 1009.7 |
| 20260506160835 | 17 | 338 | 4.8 | 9.7 | 0.00 | 1.83 | 1.83 | 83 | 1009.7 |
| 20260506155934 | 17 | 354 | 1.6 | 4.8 | 0.00 | 1.83 | 1.83 | 82 | 1009.7 |
| 20260506155334 | 17 | 34 | 1.6 | 6.4 | 0.00 | 1.83 | 1.83 | 82 | 1009.6 |
| 20260506154435 | 17 | 270 | 1.6 | 3.2 | 0.00 | 1.83 | 1.83 | 81 | 1009.7 |
| 20260506153549 | 17 | 191 | 6.4 | 11.3 | 0.00 | 1.83 | 1.83 | 81 | 1009.7 |
| 20260506152635 | 18 | 169 | 8.0 | 11.3 | 0.00 | 1.83 | 1.83 | 80 | 1009.6 |
| 20260506151734 | 18 | 234 | 4.8 | 11.3 | 0.00 | 1.83 | 1.83 | 80 | 1009.6 |
| 20260506150834 | 18 | 225 | 8.0 | 14.5 | 0.00 | 1.83 | 1.83 | 81 | 1009.6 |
| 20260506145936 | 18 | 254 | 3.2 | 8.0 | 0.00 | 1.83 | 1.83 | 79 | 1009.6 |
| 20260506145335 | 18 | 245 | 9.7 | 14.5 | 0.00 | 1.83 | 1.83 | 79 | 1009.4 |
| 20260506144456 | 18 | 24 | 4.8 | 11.3 | 0.00 | 1.83 | 1.83 | 80 | 1009.5 |
| 20260506143534 | 17 | 150 | 3.2 | 8.0 | 0.00 | 1.83 | 1.83 | 82 | 1009.5 |
| 20260506142634 | 17 | 52 | 4.8 | 12.9 | 0.00 | 1.83 | 1.83 | 80 | 1009.5 |
| 20260506141737 | 18 | 224 | 4.8 | 9.7 | 0.00 | 1.83 | 1.83 | 79 | 1009.6 |
| 20260506140838 | 18 | 214 | 8.0 | 11.3 | 0.00 | 1.83 | 1.83 | 82 | 1009.6 |
| 20260506135935 | 18 | 349 | 1.6 | 8.0 | 0.00 | 1.83 | 1.83 | 80 | 1009.7 |
| 20260506135336 | 18 | 171 | 9.7 | 19.3 | 0.00 | 1.83 | 1.83 | 79 | 1009.7 |
| 20260506134435 | 18 | 296 | 3.2 | 4.8 | 0.00 | 1.83 | 1.83 | 78 | 1009.8 |
| 20260506133534 | 18 | 235 | 9.7 | 19.3 | 0.00 | 1.83 | 1.83 | 80 | 1009.8 |
| 20260506132634 | 18 | 214 | 8.0 | 19.3 | 0.00 | 1.83 | 1.83 | 80 | 1009.8 |
| 20260506131755 | 18 | 198 | 8.0 | 16.1 | 0.00 | 1.83 | 1.83 | 81 | 1009.9 |
| 20260506130834 | 18 | 238 | 9.7 | 14.5 | 0.00 | 1.83 | 1.83 | 83 | 1009.7 |
| 20260506125935 | 18 | 208 | 4.8 | 9.7 | 0.00 | 1.83 | 1.83 | 82 | 1009.8 |
| 20260506125335 | 17 | 246 | 3.2 | 6.4 | 0.00 | 1.83 | 1.83 | 83 | 1009.8 |
| 20260506124434 | 18 | 176 | 6.4 | 11.3 | 0.00 | 1.83 | 1.83 | 85 | 1009.8 |
| 20260506123534 | 17 | 249 | 8.0 | 14.5 | 0.00 | 1.83 | 1.83 | 85 | 1009.6 |
| 20260506122655 | 17 | 228 | 8.0 | 12.9 | 0.00 | 1.83 | 1.83 | 86 | 1009.5 |
| 20260506121734 | 17 | 231 | 6.4 | 12.9 | 0.00 | 1.83 | 1.83 | 85 | 1009.5 |
| 20260506120835 | 17 | 218 | 3.2 | 6.4 | 0.00 | 1.83 | 1.83 | 87 | 1009.4 |
| 20260506115934 | 17 | 254 | 4.8 | 6.4 | 0.00 | 1.83 | 1.83 | 87 | 1009.4 |
| 20260506115335 | 17 | 265 | 1.6 | 3.2 | 0.00 | 1.83 | 1.83 | 87 | 1009.4 |
| 20260506114434 | 17 | 134 | 3.2 | 8.0 | 0.00 | 1.83 | 1.83 | 87 | 1009.4 |
| 20260506113535 | 17 | 250 | 6.4 | 9.7 | 0.00 | 1.83 | 1.83 | 87 | 1009.4 |
| 20260506112635 | 17 | 168 | 8.0 | 12.9 | 0.00 | 1.83 | 1.83 | 86 | 1009.4 |
| 20260506111737 | 17 | 226 | 9.7 | 16.1 | 0.00 | 1.83 | 1.83 | 86 | 1009.3 |
| 20260506110835 | 17 | 217 | 6.4 | 9.7 | 0.00 | 1.83 | 1.83 | 86 | 1009.4 |
| 20260506105935 | 17 | 231 | 8.0 | 12.9 | 0.00 | 1.83 | 1.83 | 86 | 1009.4 |
| 20260506105355 | 17 | 159 | 9.7 | 14.5 | 0.00 | 1.83 | 1.83 | 86 | 1009.6 |
| 20260506104435 | 17 | 224 | 6.4 | 12.9 | 0.00 | 1.83 | 1.83 | 85 | 1009.4 |
| 20260506103555 | 17 | 244 | 4.8 | 9.7 | 0.00 | 1.83 | 1.83 | 84 | 1009.4 |
| 20260506102635 | 17 | 88 | 4.8 | 9.7 | 0.00 | 1.83 | 1.83 | 84 | 1009.4 |
| 20260506101756 | 17 | 0 | 0.0 | 0.0 | 0.00 | 1.83 | 1.83 | 85 | 1009.3 |
| 20260506100835 | 17 | 92 | 6.4 | 12.9 | 0.00 | 1.83 | 1.83 | 84 | 1009.2 |
| 20260506095935 | 17 | 63 | 6.4 | 16.1 | 0.00 | 1.83 | 1.83 | 85 | 1009.4 |
| 20260506095335 | 17 | 136 | 4.8 | 9.7 | 0.00 | 1.83 | 1.83 | 85 | 1009.4 |
| 20260506094435 | 17 | 38 | 3.2 | 9.7 | 0.00 | 1.83 | 1.83 | 86 | 1009.3 |
| 20260506093535 | 17 | 237 | 6.4 | 11.3 | 0.00 | 1.85 | 1.83 | 87 | 1009.3 |
| 20260506092635 | 16 | 48 | 1.6 | 3.2 | 0.00 | 1.85 | 1.83 | 89 | 1009.3 |
| 20260506091735 | 16 | 242 | 3.2 | 6.4 | 0.00 | 1.85 | 1.83 | 90 | 1009.2 |
| 20260506090837 | 16 | 220 | 3.2 | 6.4 | 0.00 | 1.85 | 1.83 | 90 | 1009.2 |
| 20260506085934 | 15 | 213 | 3.2 | 4.8 | 0.00 | 1.85 | 1.83 | 92 | 1009.1 |
| 20260506085355 | 15 | 215 | 4.8 | 11.3 | 0.00 | 1.85 | 1.83 | 93 | 1009.1 |
| 20260506084434 | 15 | 195 | 6.4 | 8.0 | 0.00 | 1.85 | 1.83 | 96 | 1008.9 |
| 20260506083556 | 15 | 195 | 6.4 | 9.7 | 0.00 | 1.85 | 1.83 | 96 | 1008.8 |
| 20260506082635 | 15 | 214 | 4.8 | 8.0 | 0.00 | 1.85 | 1.83 | 96 | 1008.8 |
| 20260506081756 | 15 | 216 | 9.7 | 16.1 | 0.00 | 1.85 | 1.83 | 96 | 1008.6 |
| 20260506080835 | 16 | 214 | 6.4 | 11.3 | 0.00 | 1.85 | 1.83 | 97 | 1008.5 |
| 20260506072635 | 16 | 209 | 12.9 | 22.5 | 0.23 | 1.85 | 1.83 | 97 | 1008.3 |
| 20260506071735 | 16 | 221 | 14.5 | 24.1 | 0.23 | 1.85 | 1.83 | 97 | 1008.0 |
| 20260506070834 | 16 | 213 | 14.5 | 29.0 | 0.23 | 1.85 | 1.83 | 96 | 1008.0 |
| 20260506061735 | 15 | 93 | 6.4 | 17.7 | 0.00 | 1.78 | 1.60 | 95 | 1007.7 |
| 20260506060834 | 15 | 137 | 6.4 | 11.3 | 0.00 | 1.91 | 1.60 | 95 | 1007.8 |
| 20260506050835 | 13 | 0 | 0.0 | 0.0 | 0.08 | 2.97 | 1.60 | 95 | 1008.1 |
| 20260506044436 | 13 | 12 | 1.6 | 4.8 | 0.15 | 3.15 | 1.60 | 94 | 1007.9 |
| 20260506043535 | 13 | 0 | 0.0 | 0.0 | 0.15 | 3.33 | 1.60 | 94 | 1008.2 |
| 20260506042635 | 13 | 357 | 3.2 | 4.8 | 0.15 | 3.53 | 1.60 | 93 | 1008.3 |
| 20260506041756 | 13 | 355 | 6.4 | 11.3 | 0.15 | 3.66 | 1.57 | 93 | 1008.5 |
| 20260506040834 | 13 | 10 | 1.6 | 1.6 | 0.08 | 3.78 | 1.52 | 93 | 1009.0 |
| 20260506035935 | 13 | 25 | 1.6 | 1.6 | 0.05 | 3.99 | 1.47 | 93 | 1008.8 |
| 20260506035355 | 13 | 0 | 0.0 | 0.0 | 0.03 | 3.99 | 1.45 | 93 | 1008.9 |
| 20260506034435 | 13 | 15 | 4.8 | 8.0 | 0.03 | 4.09 | 1.45 | 93 | 1008.7 |
| 20260506033555 | 12 | 0 | 0.0 | 0.0 | 0.05 | 4.19 | 1.45 | 93 | 1008.5 |
| 20260506032634 | 12 | 303 | 0.0 | 1.6 | 0.05 | 4.24 | 1.45 | 94 | 1008.5 |
| 20260506031735 | 12 | 129 | 3.2 | 6.4 | 0.08 | 4.34 | 1.45 | 94 | 1008.4 |
| 20260506030835 | 12 | 339 | 4.8 | 16.1 | 0.15 | 4.47 | 1.45 | 94 | 1008.6 |
| 20260506025935 | 12 | 288 | 1.6 | 3.2 | 0.18 | 4.50 | 1.45 | 94 | 1008.8 |
| 20260506025355 | 12 | 342 | 4.8 | 11.3 | 0.23 | 4.52 | 1.45 | 95 | 1008.9 |
| 20260506024455 | 12 | 256 | 1.6 | 3.2 | 0.33 | 4.55 | 1.42 | 95 | 1009.3 |
| 20260506023534 | 12 | 7 | 3.2 | 8.0 | 0.41 | 4.57 | 1.40 | 95 | 1009.6 |
| 20260506022634 | 12 | 0 | 0.0 | 0.0 | 0.53 | 4.62 | 1.40 | 95 | 1009.7 |
| 20260506021738 | 12 | 338 | 1.6 | 8.0 | 0.64 | 4.65 | 1.37 | 94 | 1009.8 |
| 20260506020836 | 12 | 344 | 1.6 | 3.2 | 0.89 | 4.62 | 1.32 | 94 | 1009.9 |
| 20260506015935 | 13 | 342 | 1.6 | 6.4 | 0.89 | 4.62 | 1.27 | 93 | 1010.0 |
| 20260506015356 | 13 | 360 | 3.2 | 12.9 | 0.84 | 4.57 | 1.19 | 93 | 1010.0 |
| 20260506014434 | 13 | 339 | 4.8 | 14.5 | 0.76 | 4.50 | 1.09 | 93 | 1010.4 |
| 20260506013535 | 14 | 233 | 1.6 | 6.4 | 0.69 | 4.42 | 0.99 | 94 | 1010.6 |
| 20260506012635 | 14 | 197 | 3.2 | 3.2 | 0.53 | 4.29 | 0.86 | 94 | 1010.8 |
| 20260506011734 | 14 | 158 | 4.8 | 6.4 | 0.43 | 4.19 | 0.71 | 93 | 1010.5 |
| 20260506010834 | 14 | 7 | 0.0 | 1.6 | 0.13 | 3.91 | 0.41 | 93 | 1010.1 |
| 20260506005956 | 14 | 0 | 0.0 | 0.0 | 0.10 | 3.91 | 0.38 | 93 | 1010.2 |
| 20260506005334 | 14 | 0 | 0.0 | 0.0 | 0.08 | 3.91 | 0.36 | 93 | 1010.1 |
| 20260506004435 | 15 | 63 | 0.0 | 1.6 | 0.05 | 3.94 | 0.33 | 93 | 1010.3 |
| 20260506003542 | 15 | 199 | 3.2 | 6.4 | 0.05 | 3.91 | 0.33 | 93 | 1010.5 |
| 20260506002635 | 15 | 0 | 0.0 | 0.0 | 0.05 | 3.91 | 0.33 | 93 | 1010.3 |
| 20260506001736 | 15 | 0 | 0.0 | 0.0 | 0.03 | 3.91 | 0.30 | 92 | 1010.1 |
| 20260506000856 | 15 | 0 | 0.0 | 0.0 | 0.00 | 3.89 | 0.28 | 91 | 1010.3 |
| 20260505235935 | 15 | 0 | 0.0 | 0.0 | 0.00 | 3.89 | 0.28 | 91 | 1010.4 |
| 20260505235334 | 15 | 334 | 1.6 | 3.2 | 0.00 | 3.89 | 0.28 | 90 | 1010.5 |
| 20260505234435 | 15 | 0 | 0.0 | 0.0 | 0.00 | 3.89 | 0.28 | 90 | 1010.7 |
| 20260505233556 | 15 | 123 | 0.0 | 1.6 | 0.00 | 3.89 | 0.28 | 90 | 1011.1 |
| 20260505232635 | 15 | 0 | 0.0 | 0.0 | 0.00 | 3.89 | 0.28 | 89 | 1011.1 |
| 20260505231736 | 15 | 78 | 0.0 | 1.6 | 0.10 | 3.89 | 0.28 | 89 | 1011.4 |
| 20260505230834 | 15 | 205 | 0.0 | 1.6 | 0.28 | 3.89 | 0.28 | 88 | 1011.5 |
| 20260505225934 | 15 | 137 | 1.6 | 3.2 | 0.28 | 3.89 | 0.28 | 88 | 1011.6 |
| 20260505225334 | 15 | 199 | 1.6 | 3.2 | 0.28 | 3.89 | 0.28 | 87 | 1011.5 |
| 20260505224435 | 15 | 233 | 1.6 | 4.8 | 0.28 | 3.89 | 0.28 | 87 | 1011.6 |
| 20260505223534 | 16 | 177 | 4.8 | 11.3 | 0.28 | 3.89 | 0.28 | 86 | 1011.8 |
| 20260505222638 | 16 | 214 | 3.2 | 8.0 | 0.28 | 3.89 | 0.28 | 85 | 1011.8 |
| 20260505221734 | 16 | 223 | 3.2 | 6.4 | 0.18 | 3.78 | 0.18 | 85 | 1012.0 |
| 20260505220834 | 16 | 0 | 0.0 | 0.0 | 0.00 | 3.61 | 0.00 | 83 | 1011.9 |
| 20260505215956 | 16 | 0 | 0.0 | 0.0 | 0.00 | 3.61 | 0.00 | 83 | 1011.9 |
| 20260505215337 | 16 | 113 | 1.6 | 1.6 | 0.00 | 3.61 | 3.61 | 83 | 1011.9 |
| 20260505214435 | 16 | 0 | 0.0 | 0.0 | 0.00 | 3.61 | 3.61 | 83 | 1011.9 |
| 20260505213534 | 16 | 216 | 1.6 | 3.2 | 0.00 | 3.61 | 3.61 | 82 | 1012.2 |
| 20260505212657 | 16 | 130 | 0.0 | 1.6 | 0.00 | 3.61 | 3.61 | 82 | 1012.3 |
| 20260505211735 | 16 | 124 | 3.2 | 4.8 | 0.00 | 3.61 | 3.61 | 82 | 1012.3 |
| 20260505210838 | 16 | 135 | 1.6 | 1.6 | 0.00 | 3.61 | 3.61 | 83 | 1012.3 |
| 20260505205934 | 16 | 61 | 0.0 | 1.6 | 0.00 | 3.61 | 3.61 | 83 | 1012.5 |
| 20260505205355 | 16 | 132 | 1.6 | 3.2 | 0.00 | 3.61 | 3.61 | 83 | 1012.4 |
| 20260505204435 | 16 | 0 | 0.0 | 0.0 | 0.00 | 3.61 | 3.61 | 84 | 1012.4 |